Time;durP1;ratioP1;P1;durP2;ratioP2;P2;SDS_P1;SDS_P2;PMS_P1;PMS_P2;Temp;Humidity;BMP_temperature;BMP_pressure;BME280_temperature;BME280_humidity;BME280_pressure;Samples;Min_cycle;Max_cycle;Signal;HPM_P1;HPM_P2
2022/03/03 00:00:43;;;;;;;27.15;20.85;;;28.30;88.60;;;;;;5085972;28;20285;-48
2022/03/03 00:03:10;;;;;;;26.40;20.00;;;28.40;88.80;;;;;;5085412;28;20224;-40
2022/03/03 00:05:36;;;;;;;22.27;17.70;;;28.40;88.60;;;;;;5085733;28;20036;-42
2022/03/03 00:08:06;;;;;;;25.48;18.25;;;28.30;88.80;;;;;;5085384;28;20032;-44
2022/03/03 00:10:33;;;;;;;19.42;15.02;;;28.30;88.70;;;;;;5085730;28;20078;-37
2022/03/03 00:12:59;;;;;;;20.20;14.73;;;28.30;88.80;;;;;;5084305;28;20382;-42
2022/03/03 00:15:27;;;;;;;14.27;12.40;;;28.30;88.40;;;;;;5084317;28;20127;-42
2022/03/03 00:17:54;;;;;;;15.20;12.35;;;28.30;88.60;;;;;;5085172;28;20025;-44
2022/03/03 00:20:20;;;;;;;18.27;12.38;;;28.30;88.60;;;;;;5085092;28;20028;-43
2022/03/03 00:22:48;;;;;;;15.52;11.60;;;28.30;88.30;;;;;;5084334;28;20134;-46
2022/03/03 00:25:17;;;;;;;15.13;11.25;;;28.30;88.10;;;;;;5084857;28;20107;-35
2022/03/03 00:27:43;;;;;;;11.75;9.18;;;28.30;88.00;;;;;;5084990;28;20024;-33
2022/03/03 00:30:10;;;;;;;13.13;9.60;;;28.30;87.80;;;;;;5085364;28;20020;-39
2022/03/03 00:32:40;;;;;;;12.80;9.52;;;28.30;87.60;;;;;;5084942;28;20243;-38
2022/03/03 00:35:09;;;;;;;13.07;9.10;;;28.20;87.20;;;;;;5085020;28;20021;-44
2022/03/03 00:37:35;;;;;;;13.18;9.45;;;28.20;87.30;;;;;;5084829;28;20027;-45
2022/03/03 00:40:05;;;;;;;13.45;9.00;;;28.20;87.00;;;;;;5084960;28;20322;-38
2022/03/03 00:42:32;;;;;;;8.93;7.32;;;28.20;87.00;;;;;;5084640;28;20044;-41
2022/03/03 00:44:58;;;;;;;11.52;8.32;;;28.20;86.90;;;;;;5084891;28;20017;-45
2022/03/03 00:47:25;;;;;;;13.98;8.68;;;28.20;86.80;;;;;;5083487;28;20028;-44
2022/03/03 00:49:52;;;;;;;12.27;8.00;;;28.20;86.60;;;;;;5084542;28;20200;-40
2022/03/03 00:52:18;;;;;;;13.50;7.95;;;28.20;86.30;;;;;;5084508;28;20271;-36
2022/03/03 00:54:46;;;;;;;10.45;7.80;;;28.20;86.00;;;;;;5084779;28;20020;-38
2022/03/03 00:57:12;;;;;;;13.38;7.88;;;28.20;85.60;;;;;;5083161;28;20040;-36
2022/03/03 00:59:39;;;;;;;9.45;7.70;;;28.20;85.40;;;;;;5084435;28;20085;-36
2022/03/03 01:02:06;;;;;;;13.93;7.20;;;28.20;84.80;;;;;;5084264;28;20029;-41
2022/03/03 01:04:33;;;;;;;10.93;7.05;;;28.20;84.30;;;;;;5084327;28;20047;-48
2022/03/03 01:07:00;;;;;;;13.85;7.20;;;28.20;84.10;;;;;;5083042;28;20032;-36
2022/03/03 01:09:26;;;;;;;13.32;7.05;;;28.20;84.00;;;;;;5084279;28;20012;-38
2022/03/03 01:11:53;;;;;;;8.50;6.28;;;28.20;83.60;;;;;;5084255;28;20028;-36
2022/03/03 01:17:11;;;;;;;9.07;6.75;;;28.20;83.10;;;;;;5084206;28;20074;-35
2022/03/03 01:19:37;;;;;;;11.40;6.78;;;28.20;83.00;;;;;;5084153;28;20281;-40
2022/03/03 01:22:04;;;;;;;13.25;7.03;;;28.20;82.90;;;;;;5084117;28;20193;-36
2022/03/03 01:24:31;;;;;;;13.15;6.47;;;28.20;83.00;;;;;;5084030;28;20028;-39
2022/03/03 01:26:58;;;;;;;11.07;6.85;;;28.20;83.10;;;;;;5083007;28;20040;-35
2022/03/03 01:29:25;;;;;;;11.52;7.07;;;28.20;83.10;;;;;;5084269;28;20024;-39
2022/03/03 01:31:51;;;;;;;11.15;6.60;;;28.20;83.00;;;;;;5083481;28;20229;-36
2022/03/03 01:34:19;;;;;;;14.60;7.25;;;28.10;82.80;;;;;;5082514;28;20090;-37
2022/03/03 01:36:46;;;;;;;14.13;6.47;;;28.10;82.80;;;;;;5083952;28;20032;-37
2022/03/03 01:39:12;;;;;;;11.18;7.00;;;28.10;83.10;;;;;;5082638;28;20224;-36
2022/03/03 01:41:41;;;;;;;11.57;7.00;;;28.10;83.10;;;;;;5083768;28;20024;-37
2022/03/03 01:44:08;;;;;;;11.32;6.70;;;28.10;83.00;;;;;;5083858;28;20035;-40
2022/03/03 01:46:34;;;;;;;11.38;6.60;;;28.10;82.90;;;;;;5083724;28;20343;-39
2022/03/03 01:49:01;;;;;;;9.65;6.80;;;28.10;82.90;;;;;;5083730;28;20039;-35
2022/03/03 01:51:28;;;;;;;10.48;6.72;;;28.10;82.90;;;;;;5083606;28;20013;-41
2022/03/03 01:53:54;;;;;;;9.18;6.63;;;28.10;82.80;;;;;;5083857;28;20109;-39
2022/03/03 01:56:21;;;;;;;10.35;6.65;;;28.10;82.90;;;;;;5084043;28;20213;-45
2022/03/03 01:58:48;;;;;;;12.70;7.10;;;28.10;82.80;;;;;;5083634;28;20037;-39
2022/03/03 02:01:16;;;;;;;9.00;6.70;;;28.10;83.00;;;;;;5084096;28;20166;-39
2022/03/03 02:03:42;;;;;;;11.88;6.32;;;28.10;82.80;;;;;;5083528;28;20028;-41
2022/03/03 02:06:09;;;;;;;10.38;6.90;;;28.10;82.70;;;;;;5084008;28;20108;-41
2022/03/03 02:08:36;;;;;;;9.88;6.32;;;28.10;82.90;;;;;;5083621;28;20328;-52
2022/03/03 02:11:02;;;;;;;13.65;7.38;;;28.10;82.90;;;;;;5083850;28;20032;-43
2022/03/03 02:13:29;;;;;;;57.05;10.02;;;28.10;82.90;;;;;;5083619;28;20240;-40
2022/03/03 02:15:56;;;;;;;31.65;7.68;;;28.10;83.00;;;;;;5083834;28;20031;-40
2022/03/03 02:18:23;;;;;;;34.58;7.80;;;28.10;83.20;;;;;;5083620;28;20325;-43
2022/03/03 02:20:49;;;;;;;22.85;9.65;;;28.10;83.30;;;;;;5083830;28;20029;-42
2022/03/03 02:23:18;;;;;;;20.95;8.82;;;28.10;83.20;;;;;;5082307;28;20284;-42
2022/03/03 02:25:46;;;;;;;19.75;10.50;;;28.10;83.20;;;;;;5083045;28;20036;-42
2022/03/03 02:28:13;;;;;;;18.33;9.35;;;28.00;83.10;;;;;;5083438;28;20334;-45
2022/03/03 02:30:39;;;;;;;14.95;7.30;;;28.00;83.10;;;;;;5083732;28;20289;-41
2022/03/03 02:33:06;;;;;;;17.15;8.20;;;28.10;83.10;;;;;;5083063;28;20091;-44
2022/03/03 02:35:34;;;;;;;10.65;6.78;;;28.10;83.10;;;;;;5083473;28;20037;-43
2022/03/03 02:38:00;;;;;;;11.32;6.82;;;28.10;83.10;;;;;;5083430;28;20048;-42
2022/03/03 02:40:27;;;;;;;15.40;7.38;;;28.00;83.10;;;;;;5083371;28;20051;-42
2022/03/03 02:42:55;;;;;;;14.23;6.95;;;28.10;83.10;;;;;;5083267;28;20016;-41
2022/03/03 02:45:23;;;;;;;14.63;7.10;;;28.00;83.00;;;;;;5086882;28;20070;-41
2022/03/03 02:47:51;;;;;;;12.90;7.05;;;28.10;83.00;;;;;;5085751;28;20047;-41
2022/03/03 02:50:24;;;;;;;15.00;6.45;;;28.10;83.10;;;;;;5087039;28;20025;-40
2022/03/03 02:52:51;;;;;;;13.38;7.80;;;28.10;83.10;;;;;;5086783;28;20039;-41
2022/03/03 02:55:20;;;;;;;16.13;7.25;;;28.00;83.20;;;;;;5086933;28;20020;-42
2022/03/03 02:57:59;;;;;;;12.43;6.30;;;28.00;83.20;;;;;;5086724;28;20032;-45
2022/03/03 03:00:29;;;;;;;17.15;6.00;;;28.10;83.00;;;;;;5086859;28;20030;-41
2022/03/03 03:02:56;;;;;;;9.45;5.95;;;28.00;82.90;;;;;;5086802;28;20033;-43
2022/03/03 03:05:23;;;;;;;12.43;8.15;;;28.00;82.80;;;;;;5086824;28;20291;-44
2022/03/03 03:07:50;;;;;;;29.00;25.85;;;28.00;82.80;;;;;;5086541;28;20032;-43
2022/03/03 03:10:17;;;;;;;12.18;7.70;;;28.00;82.80;;;;;;5086855;28;20037;-41
2022/03/03 03:12:43;;;;;;;11.90;9.48;;;28.00;82.50;;;;;;5086429;28;20020;-41
2022/03/03 03:15:10;;;;;;;33.38;29.90;;;28.00;82.40;;;;;;5086507;28;20078;-40
2022/03/03 03:17:37;;;;;;;22.05;19.02;;;28.00;82.40;;;;;;5086523;28;20050;-43
2022/03/03 03:20:06;;;;;;;14.05;11.02;;;28.00;82.40;;;;;;5086503;28;20380;-43
2022/03/03 03:22:34;;;;;;;33.63;29.73;;;28.00;82.30;;;;;;5086110;28;20036;-35
2022/03/03 03:25:01;;;;;;;17.80;14.95;;;28.00;82.30;;;;;;5086041;28;20048;-36
2022/03/03 03:27:28;;;;;;;13.80;10.35;;;28.00;82.40;;;;;;5085845;28;20280;-39
2022/03/03 03:29:54;;;;;;;13.27;8.45;;;28.00;82.60;;;;;;5086150;28;20027;-37
2022/03/03 03:32:21;;;;;;;15.23;8.68;;;28.00;82.50;;;;;;5086128;28;20055;-44
2022/03/03 03:34:48;;;;;;;12.68;8.25;;;28.00;82.50;;;;;;5086273;28;20339;-43
2022/03/03 03:37:15;;;;;;;14.23;8.50;;;28.00;82.50;;;;;;5086045;28;20036;-42
2022/03/03 03:39:43;;;;;;;14.75;8.27;;;28.00;82.40;;;;;;5086181;28;20029;-42
2022/03/03 03:42:09;;;;;;;10.73;7.55;;;28.00;82.50;;;;;;5085975;28;20317;-42
2022/03/03 03:44:38;;;;;;;12.25;7.20;;;28.00;82.40;;;;;;5085841;28;20078;-45
2022/03/03 03:47:05;;;;;;;8.20;6.35;;;28.00;82.40;;;;;;5085877;28;20325;-44
2022/03/03 03:49:33;;;;;;;10.18;7.45;;;28.00;82.30;;;;;;5085946;28;20055;-41
2022/03/03 03:52:00;;;;;;;10.55;6.65;;;28.00;82.20;;;;;;5085558;28;20024;-40
2022/03/03 03:54:27;;;;;;;9.70;6.03;;;28.00;82.20;;;;;;5085690;28;20017;-41
2022/03/03 03:56:53;;;;;;;8.90;5.72;;;28.00;81.80;;;;;;5085005;28;20039;-38
2022/03/03 03:59:20;;;;;;;9.60;5.95;;;28.00;81.80;;;;;;5085406;28;20021;-35
2022/03/03 04:01:47;;;;;;;7.38;5.78;;;28.00;81.90;;;;;;5085434;28;20052;-46
2022/03/03 04:04:13;;;;;;;10.18;5.88;;;28.00;81.60;;;;;;5085513;28;20364;-39
2022/03/03 04:06:40;;;;;;;9.07;5.60;;;28.00;81.60;;;;;;5085363;28;20093;-44
2022/03/03 04:09:07;;;;;;;13.52;5.63;;;28.00;81.50;;;;;;5085488;28;20047;-41
2022/03/03 04:11:33;;;;;;;9.52;5.65;;;28.00;81.70;;;;;;5086027;28;20012;-39
2022/03/03 04:14:00;;;;;;;10.68;5.30;;;28.00;82.20;;;;;;5084201;28;20378;-39
2022/03/03 04:16:27;;;;;;;9.88;5.25;;;28.00;81.70;;;;;;5085894;28;20032;-39
2022/03/03 04:18:53;;;;;;;6.30;5.22;;;28.00;81.30;;;;;;5085288;28;20032;-40
2022/03/03 04:21:20;;;;;;;7.22;5.40;;;28.00;81.50;;;;;;5085115;28;20100;-40
2022/03/03 04:23:47;;;;;;;9.02;5.32;;;28.00;81.50;;;;;;5085051;28;20331;-42
2022/03/03 04:26:14;;;;;;;7.88;5.15;;;27.90;81.10;;;;;;5084872;28;20315;-45
2022/03/03 04:28:40;;;;;;;8.50;4.55;;;27.90;81.20;;;;;;5085219;28;20033;-47
2022/03/03 04:31:07;;;;;;;8.18;4.63;;;27.90;80.70;;;;;;5085511;28;20021;-41
2022/03/03 04:33:33;;;;;;;8.68;4.88;;;27.90;80.60;;;;;;5085223;28;20078;-42
2022/03/03 04:36:00;;;;;;;10.57;4.88;;;27.90;80.70;;;;;;5085329;28;20040;-41
2022/03/03 04:38:26;;;;;;;8.40;5.13;;;27.90;81.00;;;;;;5084767;28;20040;-41
2022/03/03 04:40:53;;;;;;;8.82;5.35;;;27.90;80.50;;;;;;5085184;28;20031;-42
2022/03/03 04:43:19;;;;;;;11.50;5.00;;;27.90;80.20;;;;;;5084830;28;20091;-40
2022/03/03 04:45:46;;;;;;;8.93;4.82;;;27.90;80.40;;;;;;5084873;28;20037;-40
2022/03/03 04:48:12;;;;;;;6.57;4.57;;;27.90;80.10;;;;;;5084658;28;20084;-42
2022/03/03 04:50:39;;;;;;;10.45;4.72;;;27.90;79.90;;;;;;5085094;28;20182;-46
2022/03/03 04:53:06;;;;;;;8.05;4.53;;;27.90;80.00;;;;;;5084530;28;20024;-43
2022/03/03 04:55:32;;;;;;;8.13;4.93;;;27.90;79.90;;;;;;5084480;28;20070;-41
2022/03/03 04:57:59;;;;;;;9.60;4.53;;;27.90;79.70;;;;;;5084588;28;20048;-41
2022/03/03 05:00:25;;;;;;;8.85;4.65;;;27.90;80.00;;;;;;5084461;28;20020;-41
2022/03/03 05:02:52;;;;;;;8.65;4.28;;;27.90;79.90;;;;;;5084544;28;20197;-41
2022/03/03 05:05:19;;;;;;;10.30;5.00;;;27.90;80.00;;;;;;5084266;28;20087;-40
2022/03/03 05:07:45;;;;;;;6.78;4.32;;;27.90;80.10;;;;;;5084178;28;20038;-41
2022/03/03 05:10:12;;;;;;;8.70;4.30;;;27.90;80.30;;;;;;5084275;28;20020;-41
2022/03/03 05:12:39;;;;;;;7.40;4.35;;;27.90;80.50;;;;;;5084285;28;20304;-40
2022/03/03 05:15:06;;;;;;;11.00;4.55;;;27.90;80.50;;;;;;5084190;28;20032;-40
2022/03/03 05:17:32;;;;;;;8.93;4.68;;;27.90;80.70;;;;;;5084154;28;20036;-41
2022/03/03 05:19:59;;;;;;;8.38;4.70;;;27.90;80.70;;;;;;5083074;28;20048;-40
2022/03/03 05:22:26;;;;;;;10.40;5.00;;;27.90;80.90;;;;;;5084093;28;20082;-41
2022/03/03 05:24:53;;;;;;;15.48;5.18;;;27.80;80.50;;;;;;5083886;28;20044;-39
2022/03/03 05:27:20;;;;;;;8.00;4.47;;;27.80;80.50;;;;;;5084165;28;20060;-44
2022/03/03 05:29:47;;;;;;;10.75;4.38;;;27.90;80.50;;;;;;5084150;28;20141;-44
2022/03/03 05:32:13;;;;;;;8.38;4.47;;;27.80;80.30;;;;;;5083951;28;20021;-46
2022/03/03 05:34:40;;;;;;;7.72;5.10;;;27.80;80.20;;;;;;5084155;28;20047;-42
2022/03/03 05:37:07;;;;;;;9.43;4.70;;;27.80;80.10;;;;;;5083943;28;20034;-42
2022/03/03 05:39:35;;;;;;;9.15;5.05;;;27.80;80.30;;;;;;5083889;28;20090;-43
2022/03/03 05:42:02;;;;;;;6.75;5.25;;;27.80;79.90;;;;;;5083916;28;20052;-42
2022/03/03 05:44:29;;;;;;;10.77;4.55;;;27.80;80.00;;;;;;5083993;28;20066;-42
2022/03/03 05:46:56;;;;;;;10.68;4.68;;;27.80;80.00;;;;;;5083583;28;20044;-44
2022/03/03 05:49:23;;;;;;;9.68;4.85;;;27.80;80.20;;;;;;5083817;28;20016;-42
2022/03/03 05:51:49;;;;;;;5.82;4.65;;;27.80;80.00;;;;;;5082711;28;20033;-47
2022/03/03 05:54:16;;;;;;;8.70;4.75;;;27.80;80.00;;;;;;5083600;28;20025;-46
2022/03/03 05:56:46;;;;;;;7.20;4.95;;;27.80;79.80;;;;;;5083824;28;20095;-44
2022/03/03 05:59:15;;;;;;;9.68;4.97;;;27.70;79.40;;;;;;5083661;28;20374;-42
2022/03/03 06:01:43;;;;;;;9.10;5.15;;;27.70;79.40;;;;;;5083514;28;20039;-41
2022/03/03 06:04:14;;;;;;;10.40;5.13;;;27.70;79.20;;;;;;5083594;28;20040;-36
2022/03/03 06:06:53;;;;;;;8.65;4.65;;;27.70;78.60;;;;;;5083468;28;20104;-40
2022/03/03 06:09:27;;;;;;;9.73;4.75;;;27.70;78.90;;;;;;5083601;28;20025;-38
2022/03/03 06:12:11;;;;;;;8.95;4.50;;;27.70;78.70;;;;;;5083505;28;20051;-40
2022/03/03 06:14:45;;;;;;;10.80;5.00;;;27.70;78.70;;;;;;5083666;28;20031;-42
2022/03/03 06:17:14;;;;;;;7.13;4.60;;;27.70;78.30;;;;;;5083408;28;20286;-37
2022/03/03 06:19:42;;;;;;;7.15;4.80;;;27.70;78.40;;;;;;5086181;28;20067;-39
2022/03/03 06:22:10;;;;;;;9.57;4.70;;;27.70;78.30;;;;;;5087558;28;20032;-45
2022/03/03 06:24:37;;;;;;;7.22;4.43;;;27.70;78.10;;;;;;5087133;28;20047;-40
2022/03/03 06:27:04;;;;;;;8.50;4.65;;;27.70;77.90;;;;;;5087407;28;20067;-43
2022/03/03 06:29:33;;;;;;;12.73;5.07;;;27.70;77.80;;;;;;5087567;28;20364;-37
2022/03/03 06:32:00;;;;;;;8.63;4.75;;;27.70;77.80;;;;;;5087182;28;20080;-37
2022/03/03 06:34:26;;;;;;;10.68;4.90;;;27.70;77.70;;;;;;5087239;28;20308;-40
2022/03/03 06:36:53;;;;;;;8.43;4.57;;;27.70;77.80;;;;;;5087216;28;20270;-39
2022/03/03 06:39:19;;;;;;;8.05;4.20;;;27.70;77.60;;;;;;5087048;28;20046;-37
2022/03/03 06:41:46;;;;;;;8.93;4.28;;;27.70;77.60;;;;;;5087190;28;20048;-37
2022/03/03 06:44:13;;;;;;;9.88;4.43;;;27.70;77.40;;;;;;5086973;28;20028;-35
2022/03/03 06:46:39;;;;;;;8.25;4.38;;;27.70;77.40;;;;;;5086814;28;20031;-40
2022/03/03 06:49:06;;;;;;;5.78;4.82;;;27.70;77.00;;;;;;5087011;28;20024;-35
2022/03/03 06:51:44;;;;;;;7.47;4.20;;;27.70;77.00;;;;;;5086921;28;20220;-36
2022/03/03 06:54:20;;;;;;;7.22;4.50;;;27.70;76.80;;;;;;5086675;28;20074;-38
2022/03/03 06:56:54;;;;;;;7.70;4.40;;;27.70;77.20;;;;;;5086857;28;20032;-36
2022/03/03 06:59:26;;;;;;;10.45;4.40;;;27.70;76.80;;;;;;5086672;28;20313;-36
2022/03/03 07:01:54;;;;;;;6.03;4.25;;;27.70;76.60;;;;;;5086754;28;20142;-37
2022/03/03 07:04:22;;;;;;;8.43;4.40;;;27.70;76.80;;;;;;5086669;28;20220;-39
2022/03/03 07:06:50;;;;;;;10.40;4.45;;;27.70;76.40;;;;;;5086449;28;20067;-40
2022/03/03 07:09:19;;;;;;;7.55;4.03;;;27.70;76.30;;;;;;5086601;28;20025;-39
2022/03/03 07:11:46;;;;;;;5.53;4.25;;;27.70;76.60;;;;;;5086861;28;20336;-38
2022/03/03 07:14:14;;;;;;;7.10;4.03;;;27.70;76.30;;;;;;5086331;28;20052;-41
2022/03/03 07:17:01;;;;;;;6.13;4.28;;;27.70;76.90;;;;;;5086550;28;20328;-44
2022/03/03 07:19:35;;;;;;;9.77;4.05;;;27.60;76.20;;;;;;5086350;28;20321;-42
2022/03/03 07:22:26;;;;;;;7.60;4.15;;;27.60;76.40;;;;;;5086394;28;20032;-43
2022/03/03 07:25:03;;;;;;;10.60;4.32;;;27.60;76.20;;;;;;5086139;28;20104;-37
2022/03/03 07:27:30;;;;;;;6.70;4.13;;;27.60;76.20;;;;;;5086226;28;20028;-40
2022/03/03 07:30:05;;;;;;;11.27;4.45;;;27.60;76.20;;;;;;5085333;28;20317;-36
2022/03/03 07:32:43;;;;;;;5.28;3.90;;;27.60;76.30;;;;;;5086126;28;20033;-37
2022/03/03 07:35:13;;;;;;;10.48;4.35;;;27.60;76.10;;;;;;5085940;28;20090;-39
2022/03/03 07:37:58;;;;;;;7.00;4.28;;;27.60;76.70;;;;;;5086096;28;20048;-46
2022/03/03 07:40:29;;;;;;;8.32;4.00;;;27.60;76.40;;;;;;5086182;28;20137;-39
2022/03/03 07:42:57;;;;;;;9.73;4.63;;;27.60;77.30;;;;;;5086007;28;20028;-39
2022/03/03 07:45:26;;;;;;;11.43;4.47;;;27.60;76.90;;;;;;5086172;28;20033;-40
2022/03/03 07:47:57;;;;;;;6.15;4.25;;;27.60;77.40;;;;;;5085698;28;20024;-40
2022/03/03 07:50:26;;;;;;;10.15;4.25;;;27.60;77.50;;;;;;5086075;28;20027;-42
2022/03/03 07:52:55;;;;;;;9.23;4.60;;;27.60;77.90;;;;;;5085921;28;20029;-44
2022/03/03 07:55:23;;;;;;;8.40;4.40;;;27.60;78.10;;;;;;5085903;28;20032;-41
2022/03/03 07:58:00;;;;;;;12.23;4.80;;;27.60;78.20;;;;;;5085878;28;20265;-43
2022/03/03 08:00:33;;;;;;;9.38;4.85;;;27.60;78.10;;;;;;5085715;28;20217;-41
2022/03/03 08:03:00;;;;;;;;;;;27.60;78.10;;;;;;5086037;28;20362;-41
2022/03/03 08:05:31;;;;;;;7.07;4.80;;;27.50;78.40;;;;;;5085861;28;19940;-42
2022/03/03 08:08:01;;;;;;;10.57;4.63;;;27.50;78.60;;;;;;5085395;28;20037;-41
2022/03/03 08:10:29;;;;;;;7.10;3.80;;;27.50;78.80;;;;;;5085863;28;20020;-44
2022/03/03 08:12:58;;;;;;;7.68;4.45;;;27.50;78.90;;;;;;5085457;28;20255;-43
2022/03/03 08:15:25;;;;;;;6.72;4.50;;;27.50;79.10;;;;;;5085854;28;20028;-41
2022/03/03 08:17:54;;;;;;;6.32;4.72;;;27.50;79.20;;;;;;5085329;28;20032;-42
2022/03/03 08:20:22;;;;;;;10.18;4.55;;;27.40;79.30;;;;;;5085405;28;20070;-42
2022/03/03 08:22:48;;;;;;;6.80;4.60;;;27.40;79.30;;;;;;5085220;28;20036;-42
2022/03/03 08:25:18;;;;;;;9.18;4.40;;;27.40;79.40;;;;;;5085044;28;20240;-46
2022/03/03 08:27:45;;;;;;;6.20;4.40;;;27.50;79.60;;;;;;5084881;28;20029;-42
2022/03/03 08:30:13;;;;;;;8.57;4.82;;;27.40;79.50;;;;;;5085302;28;20255;-42
2022/03/03 08:32:44;;;;;;;7.10;4.60;;;27.40;79.60;;;;;;5085030;28;20108;-42
2022/03/03 08:35:19;;;;;;;8.15;4.40;;;27.40;79.30;;;;;;5085061;28;20040;-41
2022/03/03 08:37:53;;;;;;;8.68;4.40;;;27.40;79.20;;;;;;5085052;28;20044;-46
2022/03/03 08:40:22;;;;;;;9.10;4.40;;;27.40;79.00;;;;;;5084945;28;20091;-41
2022/03/03 08:42:56;;;;;;;9.25;4.47;;;27.40;78.90;;;;;;5084574;28;20036;-36
2022/03/03 08:45:24;;;;;;;9.85;4.63;;;27.40;78.70;;;;;;5084983;28;20062;-39
2022/03/03 08:47:57;;;;;;;8.05;4.10;;;27.40;78.50;;;;;;5084489;28;20037;-45
2022/03/03 08:50:29;;;;;;;7.68;4.40;;;27.40;78.40;;;;;;5085123;28;20039;-39
2022/03/03 08:52:57;;;;;;;7.32;4.10;;;27.40;78.10;;;;;;5084557;28;20036;-47
2022/03/03 08:55:26;;;;;;;7.07;4.65;;;27.40;78.40;;;;;;5084777;28;20217;-45
2022/03/03 08:57:53;;;;;;;9.75;4.10;;;27.40;78.00;;;;;;5084577;28;20202;-43
2022/03/03 09:00:20;;;;;;;6.60;3.97;;;27.40;78.10;;;;;;5084454;28;20028;-44
2022/03/03 09:02:47;;;;;;;6.13;3.92;;;27.30;78.20;;;;;;5084453;28;20240;-46
2022/03/03 09:05:14;;;;;;;6.63;4.35;;;27.30;77.80;;;;;;5084548;28;20107;-45
2022/03/03 09:07:41;;;;;;;8.63;4.30;;;27.30;77.80;;;;;;5084229;28;20029;-45
2022/03/03 09:10:08;;;;;;;10.00;4.07;;;27.30;77.80;;;;;;5084580;28;20039;-41
2022/03/03 09:12:35;;;;;;;7.68;4.45;;;27.30;78.00;;;;;;5084289;28;20043;-45
2022/03/03 09:15:03;;;;;;;7.22;3.97;;;27.30;77.90;;;;;;5084404;28;20020;-43
2022/03/03 09:17:30;;;;;;;7.47;4.32;;;27.30;77.90;;;;;;5084204;28;20040;-46
2022/03/03 09:19:56;;;;;;;9.95;4.53;;;27.30;78.10;;;;;;5084229;28;20216;-42
2022/03/03 09:22:23;;;;;;;7.97;4.60;;;27.30;78.40;;;;;;5084185;28;20059;-45
2022/03/03 09:24:49;;;;;;;4.72;4.18;;;27.30;78.50;;;;;;5084228;28;20082;-42
2022/03/03 09:27:16;;;;;;;6.53;4.38;;;27.30;78.40;;;;;;5083868;28;20347;-41
2022/03/03 09:29:43;;;;;;;8.88;4.25;;;27.20;78.50;;;;;;5084226;28;20055;-44
2022/03/03 09:32:10;;;;;;;7.03;4.57;;;27.20;78.40;;;;;;5083833;28;20225;-43
2022/03/03 09:34:36;;;;;;;8.40;4.60;;;27.20;78.50;;;;;;5083886;28;20024;-41
2022/03/03 09:37:03;;;;;;;7.80;4.68;;;27.20;78.60;;;;;;5083836;28;20016;-43
2022/03/03 09:39:30;;;;;;;10.55;4.82;;;27.20;78.70;;;;;;5083790;28;20096;-44
2022/03/03 09:41:57;;;;;;;6.50;4.22;;;27.20;78.80;;;;;;5083888;28;20043;-41
2022/03/03 09:44:27;;;;;;;7.53;4.22;;;27.20;78.70;;;;;;5083874;28;20331;-45
2022/03/03 09:46:55;;;;;;;6.10;4.40;;;27.20;78.50;;;;;;5083639;28;20313;-42
2022/03/03 09:49:23;;;;;;;8.63;4.28;;;27.20;78.20;;;;;;5083797;28;20023;-45
2022/03/03 09:51:50;;;;;;;8.55;4.50;;;27.20;78.30;;;;;;5083860;28;20197;-41
2022/03/03 09:54:17;;;;;;;7.25;4.35;;;27.20;78.30;;;;;;5083018;28;20305;-43
2022/03/03 09:56:45;;;;;;;5.85;4.40;;;27.10;78.00;;;;;;5083734;28;20035;-42
2022/03/03 09:59:12;;;;;;;9.52;4.80;;;27.20;78.30;;;;;;5083691;28;20036;-50
2022/03/03 10:01:39;;;;;;;7.38;5.03;;;27.10;78.50;;;;;;5084241;28;20024;-42
2022/03/03 10:04:23;;;;;;;7.28;4.68;;;27.10;77.90;;;;;;5083739;28;20036;-42
2022/03/03 10:06:51;;;;;;;9.27;4.50;;;27.10;78.30;;;;;;5083456;28;20194;-45
2022/03/03 10:09:18;;;;;;;7.63;4.47;;;27.10;78.20;;;;;;5083662;28;20252;-41
2022/03/03 10:12:02;;;;;;;8.00;4.03;;;27.20;78.30;;;;;;5082562;28;20051;-42
2022/03/03 10:14:35;;;;;;;10.38;4.95;;;27.10;78.10;;;;;;5083625;28;20251;-42
2022/03/03 10:17:05;;;;;;;7.22;4.25;;;27.10;78.10;;;;;;5083605;28;20028;-36
2022/03/03 10:19:33;;;;;;;8.23;5.10;;;27.10;78.20;;;;;;5083461;28;20032;-41
2022/03/03 10:21:59;;;;;;;8.27;4.22;;;27.10;78.30;;;;;;5083555;28;20051;-40
2022/03/03 10:24:29;;;;;;;8.52;4.90;;;27.10;78.30;;;;;;5083466;28;20036;-43
2022/03/03 10:27:05;;;;;;;6.78;4.63;;;27.10;78.10;;;;;;5083388;28;20379;-39
2022/03/03 10:29:33;;;;;;;12.10;5.30;;;27.10;78.10;;;;;;5083476;28;20020;-48
2022/03/03 10:32:02;;;;;;;5.72;4.40;;;27.10;77.90;;;;;;5083287;28;20100;-42
2022/03/03 10:34:37;;;;;;;11.63;5.00;;;27.10;77.80;;;;;;5083442;28;20309;-40
2022/03/03 10:37:10;;;;;;;8.40;4.80;;;27.10;77.80;;;;;;5083388;28;20097;-41
2022/03/03 10:39:47;;;;;;;12.00;5.15;;;27.10;77.60;;;;;;5083467;28;20036;-44
2022/03/03 10:42:21;;;;;;;7.78;4.97;;;27.10;77.70;;;;;;5083272;28;20060;-42
2022/03/03 10:44:49;;;;;;;10.50;4.78;;;27.00;77.70;;;;;;5083307;28;20200;-41
2022/03/03 10:47:24;;;;;;;8.65;5.10;;;27.10;77.70;;;;;;5083320;28;20037;-42
2022/03/03 10:49:54;;;;;;;11.35;4.78;;;27.00;77.60;;;;;;5083372;28;20083;-42
2022/03/03 10:52:32;;;;;;;11.52;5.10;;;27.10;77.50;;;;;;5083190;28;20134;-40
2022/03/03 10:55:01;;;;;;;8.95;5.40;;;27.00;78.00;;;;;;5083292;28;20313;-45
2022/03/03 10:57:51;;;;;;;9.48;6.18;;;27.00;77.70;;;;;;5083158;28;20360;-39
2022/03/03 11:00:26;;;;;;;10.25;5.95;;;27.00;77.40;;;;;;5083178;28;20024;-44
2022/03/03 11:02:55;;;;;;;11.63;5.57;;;27.00;77.30;;;;;;5083115;28;20037;-41
2022/03/03 11:05:24;;;;;;;13.13;6.00;;;27.00;77.80;;;;;;5085094;28;20077;-41
2022/03/03 11:07:56;;;;;;;9.35;5.53;;;27.00;77.90;;;;;;5086404;28;20036;-45
2022/03/03 11:10:26;;;;;;;10.82;5.50;;;27.00;78.00;;;;;;5086792;28;20021;-42
2022/03/03 11:12:52;;;;;;;10.40;6.10;;;27.00;77.80;;;;;;5086515;28;20048;-40
2022/03/03 11:15:25;;;;;;;10.32;6.10;;;27.00;77.90;;;;;;5086616;28;20058;-42
2022/03/03 11:17:55;;;;;;;11.98;6.15;;;27.00;78.40;;;;;;5086448;28;20055;-43
2022/03/03 11:20:23;;;;;;;9.93;6.00;;;27.00;78.60;;;;;;5086422;28;20051;-41
2022/03/03 11:22:55;;;;;;;9.38;6.50;;;26.90;78.30;;;;;;5086309;28;20025;-47
2022/03/03 11:25:34;;;;;;;12.35;6.47;;;26.90;78.80;;;;;;5086330;28;20044;-41
2022/03/03 11:28:05;;;;;;;14.70;6.35;;;26.90;78.70;;;;;;5086177;28;20041;-44
2022/03/03 11:30:32;;;;;;;8.45;6.75;;;27.00;78.60;;;;;;5086456;28;20305;-40
2022/03/03 11:33:30;;;;;;;11.27;6.72;;;26.90;78.40;;;;;;5086065;28;20021;-43
2022/03/03 11:36:08;;;;;;;12.50;6.80;;;26.90;78.50;;;;;;5071014;28;20236;-41
2022/03/03 11:39:00;;;;;;;11.20;6.60;;;26.90;78.60;;;;;;5086261;28;20305;-54
2022/03/03 11:41:47;;;;;;;11.18;7.45;;;26.90;78.80;;;;;;5086430;28;20364;-40
2022/03/03 11:44:19;;;;;;;15.05;7.20;;;26.90;79.00;;;;;;5085989;28;20047;-43
2022/03/03 11:46:46;;;;;;;13.30;7.83;;;26.90;79.30;;;;;;5085788;28;20060;-41
2022/03/03 11:49:18;;;;;;;11.85;7.82;;;26.90;79.10;;;;;;5085816;28;20017;-40
2022/03/03 11:51:47;;;;;;;9.57;8.47;;;26.90;79.50;;;;;;5085854;28;20035;-42
2022/03/03 11:54:14;;;;;;;13.80;9.02;;;26.90;79.40;;;;;;5085672;28;20296;-40
2022/03/03 11:57:08;;;;;;;13.13;8.75;;;26.90;79.40;;;;;;5085961;28;20036;-42
2022/03/03 11:59:38;;;;;;;15.38;8.60;;;26.90;80.10;;;;;;5085771;28;20107;-40
2022/03/03 12:02:04;;;;;;;16.15;8.73;;;26.90;80.00;;;;;;5085621;28;20040;-41
2022/03/03 12:04:31;;;;;;;14.60;8.75;;;27.00;80.00;;;;;;5085634;28;20308;-42
2022/03/03 12:06:58;;;;;;;15.35;9.77;;;27.00;80.30;;;;;;5085521;28;20029;-42
2022/03/03 12:09:26;;;;;;;20.15;9.82;;;27.10;80.40;;;;;;5085528;28;20216;-42
2022/03/03 12:12:19;;;;;;;14.77;9.30;;;27.10;80.40;;;;;;5085307;28;20024;-47
2022/03/03 12:15:00;;;;;;;15.95;8.80;;;27.20;80.10;;;;;;5085474;28;20239;-42
2022/03/03 12:17:42;;;;;;;14.38;8.85;;;27.20;79.70;;;;;;5084959;28;20048;-47
2022/03/03 12:20:30;;;;;;;13.02;9.77;;;27.20;79.80;;;;;;5085450;28;20057;-43
2022/03/03 12:23:09;;;;;;;15.80;8.90;;;27.20;80.00;;;;;;5085267;28;20033;-46
2022/03/03 12:25:51;;;;;;;11.57;8.23;;;27.20;80.20;;;;;;5084925;28;20240;-43
2022/03/03 12:28:25;;;;;;;14.23;8.20;;;27.20;80.20;;;;;;5085116;28;20040;-44
2022/03/03 12:30:53;;;;;;;12.00;7.20;;;27.20;80.30;;;;;;5085366;28;20077;-41
2022/03/03 12:33:30;;;;;;;15.65;8.02;;;27.20;80.00;;;;;;5084908;28;20044;-35
2022/03/03 12:36:07;;;;;;;10.35;7.05;;;27.20;79.70;;;;;;5084956;28;20212;-36
2022/03/03 12:38:34;;;;;;;12.68;6.80;;;27.20;79.60;;;;;;5085204;28;20064;-35
2022/03/03 12:41:01;;;;;;;11.95;6.60;;;27.20;79.00;;;;;;5085311;28;20027;-36
2022/03/03 12:43:38;;;;;;;13.80;6.57;;;27.20;79.10;;;;;;5084728;28;20095;-47
2022/03/03 12:46:05;;;;;;;11.10;6.03;;;27.30;79.10;;;;;;5085105;28;20028;-42
2022/03/03 12:48:33;;;;;;;8.20;6.28;;;27.30;79.10;;;;;;5084845;28;20032;-45
2022/03/03 12:51:08;;;;;;;11.20;7.93;;;27.30;79.00;;;;;;5084883;28;20012;-42
2022/03/03 12:53:43;;;;;;;11.95;7.13;;;27.30;79.00;;;;;;5084707;28;20024;-40